Time;durP1;ratioP1;P1;durP2;ratioP2;P2;SDS_P1;SDS_P2;PMS_P1;PMS_P2;Temp;Humidity;BMP_temperature;BMP_pressure;BME280_temperature;BME280_humidity;BME280_pressure;Samples;Min_cycle;Max_cycle;Signal;HPM_P1;HPM_P2
2022/04/07 00:00:36;;;;;;;0.25;0.20;;;17.80;73.70;;;;;;5104411;27;45185;-78
2022/04/07 00:03:03;;;;;;;0.65;0.30;;;17.80;72.50;;;;;;5104416;27;45160;-78
2022/04/07 00:05:31;;;;;;;1.38;0.38;;;17.80;72.40;;;;;;5106556;27;45149;-78
2022/04/07 00:07:58;;;;;;;1.13;0.40;;;17.80;72.50;;;;;;5107312;27;45744;-78
2022/04/07 00:10:25;;;;;;;1.35;0.45;;;17.80;72.40;;;;;;5105606;27;45203;-78
2022/04/07 00:12:51;;;;;;;1.08;0.40;;;17.80;72.30;;;;;;5108377;27;45272;-78
2022/04/07 00:15:18;;;;;;;0.75;0.45;;;17.80;72.70;;;;;;5106782;27;45467;-78
2022/04/07 00:17:45;;;;;;;0.50;0.40;;;17.80;72.70;;;;;;5108293;27;46285;-78
2022/04/07 00:20:12;;;;;;;0.82;0.50;;;17.80;72.70;;;;;;5105428;27;45301;-78
2022/04/07 00:22:41;;;;;;;0.47;0.40;;;17.80;72.40;;;;;;5105882;27;45200;-78
2022/04/07 00:25:08;;;;;;;1.25;0.43;;;17.70;72.40;;;;;;5096890;27;45528;-78
2022/04/07 00:27:35;;;;;;;0.80;0.32;;;17.80;72.50;;;;;;5107440;27;47847;-78
2022/04/07 00:30:03;;;;;;;0.40;0.38;;;17.80;72.50;;;;;;5103762;27;45163;-78
2022/04/07 00:32:29;;;;;;;1.90;0.60;;;17.70;72.30;;;;;;5097203;27;45577;-78
2022/04/07 00:34:56;;;;;;;0.20;0.20;;;17.70;72.10;;;;;;5102702;27;45349;-78
2022/04/07 00:37:23;;;;;;;0.95;0.30;;;17.70;71.70;;;;;;5101728;27;47913;-78
2022/04/07 00:39:52;;;;;;;1.02;0.50;;;17.80;71.40;;;;;;5107531;27;45540;-78
2022/04/07 00:42:19;;;;;;;1.10;0.50;;;17.80;71.10;;;;;;5106010;27;45484;-78
2022/04/07 00:44:46;;;;;;;0.40;0.28;;;17.80;71.40;;;;;;5103215;27;45248;-78
2022/04/07 00:47:13;;;;;;;0.93;0.50;;;17.80;71.40;;;;;;5099576;27;45476;-78
2022/04/07 00:49:40;;;;;;;0.40;0.25;;;17.80;71.20;;;;;;5103544;27;45193;-78
2022/04/07 00:52:09;;;;;;;1.20;0.32;;;17.80;71.20;;;;;;5110062;27;45346;-78
2022/04/07 00:54:36;;;;;;;1.00;0.40;;;17.80;71.10;;;;;;5111626;27;45338;-78
2022/04/07 00:57:06;;;;;;;0.90;0.43;;;17.80;71.20;;;;;;5111103;27;45513;-78
2022/04/07 00:59:35;;;;;;;0.28;0.15;;;17.80;71.00;;;;;;5112565;27;45283;-78
2022/04/07 01:02:02;;;;;;;0.20;0.20;;;17.80;70.80;;;;;;5110936;27;45180;-78
2022/04/07 01:04:29;;;;;;;0.45;0.20;;;17.80;71.70;;;;;;5109291;27;45431;-78
2022/04/07 01:06:56;;;;;;;0.68;0.30;;;17.80;70.50;;;;;;5109809;27;46572;-78
2022/04/07 01:09:23;;;;;;;0.40;0.30;;;17.80;70.40;;;;;;5110646;27;45320;-78
2022/04/07 01:11:51;;;;;;;2.13;0.38;;;17.80;70.40;;;;;;5106013;27;45380;-78
2022/04/07 01:14:20;;;;;;;0.82;0.47;;;17.80;70.10;;;;;;5111086;27;45088;-78
2022/04/07 01:16:47;;;;;;;0.57;0.30;;;17.80;70.10;;;;;;5109996;27;48037;-78
2022/04/07 01:19:13;;;;;;;0.30;0.30;;;17.80;70.10;;;;;;5110054;27;45361;-78
2022/04/07 01:21:42;;;;;;;0.25;0.15;;;17.80;69.70;;;;;;5108721;27;45289;-78
2022/04/07 01:24:11;;;;;;;1.05;0.35;;;17.80;70.00;;;;;;5103919;27;45287;-78
2022/04/07 01:26:40;;;;;;;0.30;0.30;;;17.80;69.90;;;;;;5109681;27;45418;-78
2022/04/07 01:29:09;;;;;;;1.45;0.20;;;17.70;69.90;;;;;;5110296;27;45279;-79
2022/04/07 01:31:36;;;;;;;1.05;0.40;;;17.80;70.10;;;;;;5108313;27;45397;-78
2022/04/07 01:34:07;;;;;;;1.23;0.50;;;17.80;70.50;;;;;;5107131;27;45431;-78
2022/04/07 01:36:38;;;;;;;0.22;0.22;;;17.80;70.70;;;;;;5107378;27;45352;-78
2022/04/07 01:39:07;;;;;;;0.40;0.30;;;17.80;70.70;;;;;;5108310;27;45458;-78
2022/04/07 01:41:35;;;;;;;0.73;0.32;;;17.80;70.70;;;;;;5095840;27;45298;-79
2022/04/07 01:44:05;;;;;;;0.93;0.30;;;17.80;70.80;;;;;;5102858;27;45414;-78
2022/04/07 01:46:33;;;;;;;1.10;0.40;;;17.80;71.10;;;;;;5109472;27;48285;-78
2022/04/07 01:49:00;;;;;;;1.10;0.30;;;17.80;71.00;;;;;;5105715;27;45402;-79
2022/04/07 01:51:29;;;;;;;0.55;0.30;;;17.80;70.90;;;;;;5101887;27;45164;-78
2022/04/07 01:53:56;;;;;;;0.47;0.20;;;17.80;70.90;;;;;;5109322;27;45374;-78
2022/04/07 01:56:24;;;;;;;1.02;0.30;;;17.80;70.60;;;;;;5108861;27;45441;-78
2022/04/07 01:58:51;;;;;;;0.73;0.35;;;17.80;70.30;;;;;;5105757;27;45338;-78
2022/04/07 02:01:20;;;;;;;0.15;0.15;;;17.80;70.70;;;;;;5107955;27;45297;-78
2022/04/07 02:03:46;;;;;;;0.50;0.13;;;17.80;70.70;;;;;;5107934;27;45196;-78
2022/04/07 02:06:14;;;;;;;1.13;0.43;;;17.80;70.90;;;;;;5110077;27;45971;-78
2022/04/07 02:08:42;;;;;;;0.28;0.20;;;17.70;70.90;;;;;;5108212;27;45181;-78
2022/04/07 02:11:10;;;;;;;0.47;0.20;;;17.80;71.00;;;;;;5108440;27;45266;-78
2022/04/07 02:13:38;;;;;;;0.20;0.20;;;17.80;70.90;;;;;;5121066;27;45181;-78
2022/04/07 02:16:05;;;;;;;1.02;0.40;;;17.80;71.00;;;;;;5109321;27;46018;-78
2022/04/07 02:18:33;;;;;;;0.68;0.32;;;17.80;71.00;;;;;;5108054;27;45549;-78
2022/04/07 02:21:00;;;;;;;0.25;0.20;;;17.80;70.80;;;;;;5108686;27;45266;-78
2022/04/07 02:23:27;;;;;;;0.20;0.20;;;17.80;70.80;;;;;;5108313;27;45281;-78
2022/04/07 02:25:54;;;;;;;0.28;0.22;;;17.80;70.90;;;;;;5100821;27;47444;-78
2022/04/07 02:28:21;;;;;;;0.35;0.17;;;17.80;70.90;;;;;;5099377;27;45254;-79
2022/04/07 02:30:49;;;;;;;0.52;0.22;;;17.80;70.90;;;;;;5105940;27;45189;-78
2022/04/07 02:33:16;;;;;;;0.30;0.20;;;17.80;70.70;;;;;;5105926;27;45219;-78
2022/04/07 02:35:44;;;;;;;0.15;0.13;;;17.80;70.80;;;;;;5107490;27;46350;-79
2022/04/07 02:38:11;;;;;;;0.30;0.17;;;17.80;70.90;;;;;;5107938;27;45764;-78
2022/04/07 02:40:38;;;;;;;0.65;0.20;;;17.80;70.80;;;;;;5108574;27;45253;-78
2022/04/07 02:43:05;;;;;;;0.20;0.20;;;17.80;70.60;;;;;;5098779;27;45423;-78
2022/04/07 02:45:32;;;;;;;0.60;0.13;;;17.80;70.40;;;;;;5103725;27;47322;-78
2022/04/07 02:47:59;;;;;;;0.60;0.25;;;17.80;70.30;;;;;;5108013;27;45199;-78
2022/04/07 02:50:26;;;;;;;0.22;0.20;;;17.80;70.40;;;;;;5107138;27;46699;-78
2022/04/07 02:52:54;;;;;;;0.17;0.17;;;17.80;70.60;;;;;;5108759;27;45128;-79
2022/04/07 02:55:21;;;;;;;0.55;0.28;;;17.80;70.60;;;;;;5108664;27;46239;-78
2022/04/07 02:57:48;;;;;;;1.27;0.20;;;17.80;70.60;;;;;;5105458;27;45269;-78
2022/04/07 03:00:16;;;;;;;0.45;0.20;;;17.80;70.60;;;;;;5102426;27;45193;-78
2022/04/07 03:02:42;;;;;;;0.20;0.20;;;17.80;70.70;;;;;;5107524;27;45333;-78
2022/04/07 03:05:09;;;;;;;1.05;0.20;;;17.80;70.60;;;;;;5106940;27;45282;-79
2022/04/07 03:07:36;;;;;;;0.20;0.20;;;17.80;70.50;;;;;;5108542;27;45443;-79
2022/04/07 03:10:05;;;;;;;0.80;0.20;;;17.70;70.30;;;;;;5108566;27;45308;-78
2022/04/07 03:12:32;;;;;;;0.30;0.20;;;17.80;70.60;;;;;;5108638;27;45309;-78
2022/04/07 03:14:59;;;;;;;1.70;0.28;;;17.80;70.30;;;;;;5107292;27;45198;-78
2022/04/07 03:17:25;;;;;;;0.68;0.30;;;17.80;70.40;;;;;;5107848;27;45702;-78
2022/04/07 03:19:52;;;;;;;1.10;0.30;;;17.80;70.10;;;;;;5101650;27;45427;-78
2022/04/07 03:22:19;;;;;;;0.15;0.15;;;17.80;70.00;;;;;;5109501;27;45182;-78
2022/04/07 03:24:46;;;;;;;0.50;0.20;;;17.80;70.00;;;;;;5104298;27;47423;-79
2022/04/07 03:27:14;;;;;;;0.28;0.20;;;17.80;70.10;;;;;;5107439;27;45712;-78
2022/04/07 03:29:41;;;;;;;0.60;0.20;;;17.80;70.00;;;;;;5107676;27;45252;-78
2022/04/07 03:32:09;;;;;;;0.25;0.20;;;17.80;70.10;;;;;;5105710;27;45371;-78
2022/04/07 03:34:36;;;;;;;0.35;0.22;;;17.80;70.00;;;;;;5103821;27;45236;-78
2022/04/07 03:37:04;;;;;;;0.43;0.30;;;17.80;69.70;;;;;;5108747;27;45324;-78
2022/04/07 03:39:31;;;;;;;0.63;0.30;;;17.80;69.50;;;;;;5103570;27;45738;-78
2022/04/07 03:41:58;;;;;;;1.38;0.30;;;17.80;69.90;;;;;;5105870;27;45441;-78
2022/04/07 03:44:26;;;;;;;0.20;0.10;;;17.70;70.30;;;;;;5106540;27;48058;-78
2022/04/07 03:46:53;;;;;;;0.75;0.30;;;17.70;70.40;;;;;;5099093;27;45230;-78
2022/04/07 03:49:21;;;;;;;0.95;0.17;;;17.70;70.30;;;;;;5102631;27;45305;-78
2022/04/07 03:51:47;;;;;;;0.82;0.30;;;17.70;70.90;;;;;;5107987;27;45670;-78
2022/04/07 03:54:17;;;;;;;0.10;0.10;;;17.60;70.70;;;;;;5104883;27;46180;-78
2022/04/07 03:56:44;;;;;;;0.70;0.30;;;17.60;70.70;;;;;;5108191;27;45217;-78
2022/04/07 03:59:10;;;;;;;0.52;0.22;;;17.70;70.90;;;;;;5106464;27;45323;-78
2022/04/07 04:01:40;;;;;;;1.35;0.20;;;17.70;70.70;;;;;;5105490;27;45360;-78
2022/04/07 04:04:07;;;;;;;0.10;0.10;;;17.70;70.50;;;;;;5105336;27;46602;-78
2022/04/07 04:06:34;;;;;;;0.15;0.10;;;17.70;70.70;;;;;;5104891;27;45510;-78
2022/04/07 04:09:01;;;;;;;0.30;0.20;;;17.70;70.60;;;;;;5106714;27;45216;-78
2022/04/07 04:11:28;;;;;;;0.40;0.30;;;17.70;70.80;;;;;;5105575;27;45281;-78
2022/04/07 04:13:54;;;;;;;0.52;0.25;;;17.70;70.70;;;;;;5103955;27;47161;-78
2022/04/07 04:16:21;;;;;;;0.90;0.30;;;17.70;70.90;;;;;;5103082;27;45487;-78
2022/04/07 04:18:49;;;;;;;0.73;0.63;;;17.70;70.50;;;;;;5105493;27;45274;-78
2022/04/07 04:21:16;;;;;;;1.23;0.30;;;17.70;70.60;;;;;;5106513;27;45393;-78
2022/04/07 04:23:43;;;;;;;0.80;0.25;;;17.70;70.70;;;;;;5105639;27;47008;-78
2022/04/07 04:26:10;;;;;;;0.40;0.28;;;17.70;70.30;;;;;;5105523;27;45171;-78
2022/04/07 04:28:36;;;;;;;1.25;0.43;;;17.70;70.50;;;;;;5099489;27;45239;-78
2022/04/07 04:31:03;;;;;;;0.30;0.10;;;17.70;70.50;;;;;;5103667;27;45206;-78
2022/04/07 04:33:30;;;;;;;0.38;0.10;;;17.70;70.50;;;;;;5105198;27;48383;-78
2022/04/07 04:35:58;;;;;;;0.20;0.10;;;17.70;70.60;;;;;;5105384;27;45203;-78
2022/04/07 04:38:25;;;;;;;0.30;0.30;;;17.70;70.90;;;;;;5106522;27;45191;-78
2022/04/07 04:40:52;;;;;;;1.67;0.50;;;17.70;70.40;;;;;;5107227;27;45141;-78
2022/04/07 04:43:19;;;;;;;0.17;0.10;;;17.70;70.50;;;;;;5102667;27;46260;-78
2022/04/07 04:45:46;;;;;;;0.40;0.17;;;17.70;70.20;;;;;;5105164;27;45500;-78
2022/04/07 04:48:12;;;;;;;0.38;0.22;;;17.70;69.80;;;;;;5103879;27;45264;-78
2022/04/07 04:50:39;;;;;;;0.63;0.30;;;17.70;69.30;;;;;;5100943;27;45228;-78
2022/04/07 04:53:08;;;;;;;0.68;0.30;;;17.70;69.10;;;;;;5095884;27;45479;-78
2022/04/07 04:55:34;;;;;;;0.40;0.20;;;17.70;70.10;;;;;;5105085;27;45674;-78
2022/04/07 04:58:01;;;;;;;0.70;0.30;;;17.70;70.80;;;;;;5104594;27;45362;-78
2022/04/07 05:00:28;;;;;;;0.20;0.20;;;17.70;70.20;;;;;;5102663;27;45313;-78
2022/04/07 05:02:55;;;;;;;0.50;0.30;;;17.70;71.00;;;;;;5101652;27;46380;-80
2022/04/07 05:05:22;;;;;;;0.73;0.30;;;17.70;71.30;;;;;;5102630;27;45561;-79
2022/04/07 05:07:48;;;;;;;0.40;0.20;;;17.70;71.50;;;;;;5105823;27;45193;-80
2022/04/07 05:10:18;;;;;;;0.50;0.20;;;17.70;71.70;;;;;;5103319;27;45527;-81
2022/04/07 05:12:45;;;;;;;0.80;0.30;;;17.70;71.70;;;;;;5104541;27;47152;-79
2022/04/07 05:15:12;;;;;;;0.20;0.20;;;17.70;71.30;;;;;;5104793;27;45255;-79
2022/04/07 05:17:39;;;;;;;0.73;0.30;;;17.60;70.90;;;;;;5099620;27;45276;-79
2022/04/07 05:20:08;;;;;;;1.10;0.20;;;17.60;70.40;;;;;;5102820;27;45494;-79
2022/04/07 05:22:36;;;;;;;0.32;0.20;;;17.60;70.10;;;;;;5092958;27;45300;-79
2022/04/07 05:25:03;;;;;;;0.80;0.28;;;17.60;70.20;;;;;;5100361;27;45278;-79
2022/04/07 05:27:32;;;;;;;0.52;0.20;;;17.60;70.30;;;;;;5097730;27;45200;-79
2022/04/07 05:29:59;;;;;;;0.45;0.20;;;17.60;70.10;;;;;;5107296;27;46587;-79
2022/04/07 05:32:26;;;;;;;0.30;0.10;;;17.60;70.10;;;;;;5100113;27;47077;-79
2022/04/07 05:34:53;;;;;;;0.28;0.20;;;17.60;70.20;;;;;;5105065;27;45452;-80
2022/04/07 05:37:19;;;;;;;0.20;0.20;;;17.60;70.40;;;;;;5101814;27;45735;-79
2022/04/07 05:39:47;;;;;;;0.88;0.30;;;17.60;70.90;;;;;;5101763;27;45349;-78
2022/04/07 05:42:14;;;;;;;0.20;0.10;;;17.70;71.20;;;;;;5101652;27;46251;-80
2022/04/07 05:44:42;;;;;;;0.40;0.30;;;17.70;71.10;;;;;;5110018;27;45223;-79
2022/04/07 05:47:09;;;;;;;0.30;0.20;;;17.70;71.20;;;;;;5099428;27;45475;-79
2022/04/07 05:49:36;;;;;;;0.25;0.20;;;17.70;71.10;;;;;;5097982;27;45372;-79
2022/04/07 05:52:04;;;;;;;2.15;0.30;;;17.70;71.00;;;;;;5104686;27;46512;-80
2022/04/07 05:54:31;;;;;;;0.10;0.10;;;17.80;71.10;;;;;;5108390;27;45181;-79
2022/04/07 05:56:58;;;;;;;1.30;0.20;;;17.80;71.10;;;;;;5106456;27;45166;-79
2022/04/07 05:59:25;;;;;;;1.05;0.30;;;17.80;71.00;;;;;;5106676;27;45458;-79
2022/04/07 06:01:53;;;;;;;0.20;0.20;;;17.80;71.00;;;;;;5100383;27;46082;-80
2022/04/07 06:04:20;;;;;;;1.85;0.40;;;17.80;71.10;;;;;;5104628;27;46053;-80
2022/04/07 06:06:47;;;;;;;0.45;0.10;;;17.80;71.00;;;;;;5107888;27;45333;-80
2022/04/07 06:09:13;;;;;;;0.50;0.30;;;17.90;71.20;;;;;;5108696;27;45300;-80
2022/04/07 06:11:40;;;;;;;0.63;0.40;;;17.80;71.00;;;;;;5105454;27;45237;-80
2022/04/07 06:14:07;;;;;;;0.30;0.10;;;17.80;71.10;;;;;;5108987;27;45220;-80
2022/04/07 06:16:34;;;;;;;0.70;0.20;;;17.80;71.10;;;;;;5108660;27;45205;-80
2022/04/07 06:19:02;;;;;;;0.98;0.20;;;17.80;71.30;;;;;;5105872;27;45254;-80
2022/04/07 06:21:29;;;;;;;0.10;0.05;;;17.80;71.30;;;;;;5109094;27;45440;-80
2022/04/07 06:23:56;;;;;;;0.28;0.20;;;17.80;71.30;;;;;;5101243;27;45442;-80
2022/04/07 06:26:23;;;;;;;0.80;0.28;;;17.80;71.20;;;;;;5108390;27;45278;-80
2022/04/07 06:28:50;;;;;;;0.40;0.25;;;17.80;71.20;;;;;;5099545;27;45286;-80
2022/04/07 06:31:17;;;;;;;0.17;0.15;;;17.80;71.00;;;;;;5108926;27;46641;-80
2022/04/07 06:33:44;;;;;;;0.55;0.20;;;17.80;71.10;;;;;;5104170;27;45698;-80
2022/04/07 06:36:13;;;;;;;0.30;0.10;;;17.80;71.20;;;;;;5105784;27;45508;-80
2022/04/07 06:38:39;;;;;;;1.45;0.40;;;17.80;71.30;;;;;;5105269;27;45346;-80
2022/04/07 06:41:06;;;;;;;0.10;0.10;;;17.80;71.40;;;;;;5099238;27;46606;-80
2022/04/07 06:43:33;;;;;;;0.35;0.20;;;17.80;71.40;;;;;;5106246;27;45214;-79
2022/04/07 06:46:00;;;;;;;0.52;0.20;;;17.80;71.30;;;;;;5108575;27;45162;-79
2022/04/07 06:48:27;;;;;;;0.25;0.20;;;17.80;71.30;;;;;;5105742;27;45186;-79
2022/04/07 06:50:53;;;;;;;0.47;0.13;;;17.80;71.20;;;;;;5105028;27;45992;-80
2022/04/07 06:53:22;;;;;;;0.20;0.10;;;17.90;71.20;;;;;;5101313;27;45233;-80
2022/04/07 06:55:48;;;;;;;0.43;0.15;;;17.80;71.00;;;;;;5104507;27;45178;-79
2022/04/07 06:58:15;;;;;;;0.65;0.30;;;17.90;71.20;;;;;;5107099;27;45334;-80
2022/04/07 07:00:44;;;;;;;0.73;0.22;;;17.90;71.20;;;;;;5102337;27;47861;-80
2022/04/07 07:03:12;;;;;;;0.70;0.20;;;17.90;71.10;;;;;;5103809;27;45282;-79
2022/04/07 07:05:39;;;;;;;0.43;0.30;;;17.80;71.10;;;;;;5104642;27;45363;-79
2022/04/07 07:08:17;;;;;;;0.30;0.20;;;17.80;71.20;;;;;;5101619;27;45367;-80
2022/04/07 07:10:46;;;;;;;0.47;0.13;;;17.80;71.40;;;;;;5106209;27;45757;-80
2022/04/07 07:13:14;;;;;;;0.85;0.10;;;17.80;71.30;;;;;;5105525;27;45498;-80
2022/04/07 07:15:40;;;;;;;1.27;0.20;;;17.80;71.40;;;;;;5105699;27;45430;-79
2022/04/07 07:18:08;;;;;;;0.35;0.20;;;17.80;71.40;;;;;;5104558;27;45560;-78
2022/04/07 07:20:35;;;;;;;0.35;0.10;;;17.80;71.70;;;;;;5105515;27;47724;-78
2022/04/07 07:23:02;;;;;;;0.57;0.20;;;17.80;71.40;;;;;;5106205;27;45610;-78
2022/04/07 07:25:31;;;;;;;0.88;0.17;;;17.70;71.50;;;;;;5105726;27;45272;-78
2022/04/07 07:28:00;;;;;;;0.75;0.30;;;17.70;71.70;;;;;;5104689;27;45249;-78
2022/04/07 07:30:27;;;;;;;0.68;0.17;;;17.70;71.80;;;;;;5103672;27;47107;-78
2022/04/07 07:32:54;;;;;;;0.75;0.20;;;17.70;71.90;;;;;;5106971;27;45185;-78
2022/04/07 07:35:22;;;;;;;0.52;0.13;;;17.70;71.70;;;;;;5105052;27;45323;-78
2022/04/07 07:37:50;;;;;;;0.28;0.13;;;17.60;71.60;;;;;;5098325;27;45273;-78
2022/04/07 07:40:18;;;;;;;0.20;0.10;;;17.70;71.70;;;;;;5102718;27;47099;-78
2022/04/07 07:42:45;;;;;;;0.70;0.20;;;17.70;71.70;;;;;;5106877;27;45237;-78
2022/04/07 07:45:13;;;;;;;0.82;0.30;;;17.70;71.70;;;;;;5108762;27;45236;-79
2022/04/07 07:47:40;;;;;;;0.40;0.13;;;17.70;71.70;;;;;;5106393;27;45790;-78
2022/04/07 07:50:07;;;;;;;0.40;0.10;;;17.70;71.70;;;;;;5103359;27;47388;-78
2022/04/07 07:52:34;;;;;;;1.00;0.17;;;17.80;71.70;;;;;;5105185;27;45730;-78
2022/04/07 07:55:01;;;;;;;0.57;0.20;;;17.80;71.70;;;;;;5106153;27;45358;-78
2022/04/07 07:57:28;;;;;;;0.32;0.20;;;17.80;71.80;;;;;;5103110;27;45476;-77
2022/04/07 07:59:55;;;;;;;0.50;0.20;;;17.70;71.70;;;;;;5105914;27;47173;-78
2022/04/07 08:02:23;;;;;;;1.55;0.30;;;17.80;72.80;;;;;;5101796;27;45108;-78
2022/04/07 08:04:50;;;;;;;0.20;0.10;;;17.80;72.90;;;;;;5107210;27;45238;-78
2022/04/07 08:07:17;;;;;;;0.45;0.10;;;17.80;71.90;;;;;;5106292;27;45846;-78
2022/04/07 08:09:43;;;;;;;0.73;0.30;;;17.80;71.90;;;;;;5103942;27;47999;-77
2022/04/07 08:12:10;;;;;;;0.63;0.20;;;17.80;71.90;;;;;;5101429;27;45470;-77
2022/04/07 08:14:37;;;;;;;0.63;0.22;;;17.80;72.10;;;;;;5102764;27;45301;-77
2022/04/07 08:17:04;;;;;;;0.20;0.10;;;17.80;72.20;;;;;;5104131;27;45154;-77
2022/04/07 08:19:35;;;;;;;1.55;0.28;;;17.80;72.30;;;;;;5101304;27;47069;-77
2022/04/07 08:22:02;;;;;;;33.83;3.33;;;17.80;72.50;;;;;;5105049;27;45696;-79
2022/04/07 08:24:28;;;;;;;19.30;1.02;;;17.80;72.80;;;;;;5106110;27;45321;-78
2022/04/07 08:26:55;;;;;;;13.32;0.85;;;17.90;72.40;;;;;;5104251;27;45344;-79
2022/04/07 08:29:22;;;;;;;1.70;0.73;;;17.90;72.20;;;;;;5104098;27;47441;-78
2022/04/07 08:31:51;;;;;;;4.40;0.40;;;17.90;72.20;;;;;;5107776;27;45224;-78
2022/04/07 08:34:18;;;;;;;3.65;0.40;;;17.90;72.20;;;;;;5104566;27;45586;-79
2022/04/07 08:36:47;;;;;;;3.13;0.73;;;17.90;72.30;;;;;;5105341;27;45391;-78
2022/04/07 08:39:13;;;;;;;3.13;0.40;;;17.90;72.30;;;;;;5104488;27;47831;-78
2022/04/07 08:41:42;;;;;;;2.85;0.30;;;17.90;72.40;;;;;;5106349;27;45440;-78
2022/04/07 08:44:09;;;;;;;7.35;0.50;;;17.90;72.40;;;;;;5104979;27;45327;-78
2022/04/07 08:46:36;;;;;;;0.82;0.50;;;18.00;72.40;;;;;;5106198;27;45383;-78
2022/04/07 08:49:04;;;;;;;4.18;0.65;;;17.90;72.20;;;;;;5100466;27;45976;-79
2022/04/07 08:51:32;;;;;;;1.90;0.25;;;17.90;72.20;;;;;;5106470;27;45204;-78
2022/04/07 08:54:01;;;;;;;1.33;0.40;;;17.90;72.20;;;;;;5104555;27;45319;-78
2022/04/07 08:56:28;;;;;;;0.82;0.30;;;18.00;72.20;;;;;;5105273;27;45156;-78
2022/04/07 08:58:55;;;;;;;1.98;0.20;;;17.90;72.50;;;;;;5106125;27;46891;-78
2022/04/07 09:01:21;;;;;;;5.25;0.77;;;17.90;72.50;;;;;;5103248;27;45262;-78
2022/04/07 09:03:48;;;;;;;1.52;0.20;;;18.00;72.40;;;;;;5107079;27;45305;-79
2022/04/07 09:06:17;;;;;;;1.40;0.20;;;18.00;72.60;;;;;;5106866;27;45362;-78
2022/04/07 09:08:43;;;;;;;1.35;0.30;;;17.90;72.80;;;;;;5108270;27;45388;-78
2022/04/07 09:11:12;;;;;;;0.82;0.38;;;17.90;72.10;;;;;;5108048;27;45213;-78
2022/04/07 09:13:40;;;;;;;1.67;0.20;;;18.00;72.40;;;;;;5116940;27;45238;-79
2022/04/07 09:16:11;;;;;;;2.65;0.22;;;18.00;72.50;;;;;;5110085;27;45310;-78
2022/04/07 09:18:38;;;;;;;0.88;0.20;;;18.00;72.40;;;;;;5108873;27;47890;-79
2022/04/07 09:21:07;;;;;;;0.50;0.20;;;18.00;72.60;;;;;;5101435;27;45186;-79
2022/04/07 09:23:38;;;;;;;0.90;0.20;;;18.00;72.60;;;;;;5107987;27;45306;-78
2022/04/07 09:26:05;;;;;;;0.98;0.13;;;18.00;72.60;;;;;;5109304;27;45442;-79
2022/04/07 09:28:33;;;;;;;0.10;0.10;;;18.00;72.70;;;;;;5105524;27;47205;-78
2022/04/07 09:31:01;;;;;;;0.65;0.30;;;18.00;72.60;;;;;;5105870;27;45251;-79
2022/04/07 09:33:30;;;;;;;1.95;0.30;;;18.10;72.40;;;;;;5101016;27;45209;-78
2022/04/07 09:36:05;;;;;;;0.75;0.30;;;18.10;72.60;;;;;;5104473;27;46259;-79
2022/04/07 09:38:33;;;;;;;0.53;0.10;;;18.10;72.80;;;;;;5099923;27;48474;-78
2022/04/07 09:41:08;;;;;;;1.30;0.10;;;18.00;72.70;;;;;;5102536;27;46076;-78
2022/04/07 09:43:47;;;;;;;0.10;0.10;;;18.00;72.40;;;;;;5106544;27;45365;-78
2022/04/07 09:46:15;;;;;;;0.80;0.55;;;18.00;72.80;;;;;;5108266;27;45462;-78
2022/04/07 09:48:59;;;;;;;2.92;0.65;;;18.00;72.80;;;;;;5107875;27;46635;-78
2022/04/07 09:51:27;;;;;;;0.45;0.30;;;17.90;72.80;;;;;;5101716;27;45203;-78
2022/04/07 09:53:56;;;;;;;1.77;0.30;;;17.90;73.50;;;;;;5105489;27;45414;-78
2022/04/07 09:56:26;;;;;;;1.48;0.35;;;17.80;73.30;;;;;;5098054;27;45249;-78
2022/04/07 09:58:54;;;;;;;0.70;0.35;;;17.80;73.70;;;;;;5093394;27;46096;-78
2022/04/07 10:01:21;;;;;;;1.00;0.30;;;17.80;73.60;;;;;;5105672;27;45278;-78
2022/04/07 10:03:50;;;;;;;2.65;0.35;;;17.80;74.10;;;;;;5104088;27;45526;-78
2022/04/07 10:06:18;;;;;;;0.38;0.22;;;17.70;74.00;;;;;;5104277;27;45397;-78
2022/04/07 10:08:48;;;;;;;4.80;0.45;;;17.80;74.00;;;;;;5108409;27;48087;-78
2022/04/07 10:11:16;;;;;;;1.65;0.55;;;17.70;74.30;;;;;;5106253;27;45876;-78
2022/04/07 10:13:44;;;;;;;2.33;0.50;;;17.80;74.20;;;;;;5109425;27;45242;-79
2022/04/07 10:16:13;;;;;;;0.75;0.30;;;17.80;74.10;;;;;;5103174;27;45357;-78
2022/04/07 10:18:50;;;;;;;2.08;0.68;;;17.80;74.20;;;;;;5103256;27;46162;-78
2022/04/07 10:21:39;;;;;;;20.88;1.95;;;17.90;75.00;;;;;;5101716;27;45322;-78
2022/04/07 10:24:25;;;;;;;8.32;0.93;;;18.00;74.30;;;;;;5104489;27;45358;-78
2022/04/07 10:26:52;;;;;;;10.57;0.70;;;18.00;76.50;;;;;;5102551;27;45341;-78
2022/04/07 10:29:22;;;;;;;1.83;0.40;;;18.20;76.20;;;;;;5102836;27;48329;-78
2022/04/07 10:32:19;;;;;;;2.88;0.57;;;18.40;74.80;;;;;;5100094;27;46181;-78
2022/04/07 10:34:57;;;;;;;3.67;0.43;;;18.70;73.70;;;;;;5102074;27;45170;-78
2022/04/07 10:37:32;;;;;;;0.55;0.40;;;18.90;73.60;;;;;;5100225;27;45683;-78
2022/04/07 10:40:45;;;;;;;0.70;0.40;;;19.10;73.50;;;;;;5105462;27;45462;-78
2022/04/07 10:43:19;;;;;;;1.50;0.50;;;19.40;73.00;;;;;;5041997;28;45247;-78
2022/04/07 10:45:47;;;;;;;5.80;0.60;;;19.60;72.40;;;;;;5094502;27;45281;-78
2022/04/07 10:48:28;;;;;;;0.73;0.40;;;19.80;72.80;;;;;;5104802;27;45488;-78
2022/04/07 10:50:57;;;;;;;1.75;0.40;;;20.00;72.10;;;;;;5105628;27;47410;-78
2022/04/07 10:53:28;;;;;;;2.08;0.32;;;20.20;71.30;;;;;;5109827;27;45532;-78
2022/04/07 10:55:57;;;;;;;3.20;0.60;;;20.40;71.00;;;;;;5108022;27;45187;-78
2022/04/07 10:58:38;;;;;;;3.65;0.57;;;20.40;70.00;;;;;;5104744;27;45185;-78
2022/04/07 11:01:05;;;;;;;1.75;0.43;;;20.60;69.90;;;;;;5105391;27;46794;-78
2022/04/07 11:03:35;;;;;;;0.95;0.55;;;20.60;69.60;;;;;;5107204;27;45223;-78
2022/04/07 11:06:06;;;;;;;2.28;0.40;;;20.70;68.90;;;;;;5108142;27;45253;-78
2022/04/07 11:08:33;;;;;;;0.85;0.50;;;20.70;69.30;;;;;;5104594;27;45417;-78
2022/04/07 11:10:59;;;;;;;1.40;0.38;;;20.70;67.70;;;;;;5106194;27;46625;-78
2022/04/07 11:13:42;;;;;;;0.85;0.40;;;20.80;67.10;;;;;;5108179;27;45218;-78
2022/04/07 11:16:19;;;;;;;1.38;0.45;;;20.70;66.60;;;;;;5107346;27;46302;-78
2022/04/07 11:19:02;;;;;;;3.38;0.50;;;20.60;66.00;;;;;;5102487;27;45396;-78
2022/04/07 11:21:44;;;;;;;2.25;0.63;;;20.60;66.40;;;;;;5100312;27;45970;-78
2022/04/07 11:24:22;;;;;;;1.88;0.55;;;20.60;66.10;;;;;;5104881;27;45284;-78
2022/04/07 11:26:49;;;;;;;1.50;0.45;;;20.60;66.20;;;;;;5103125;27;45486;-79
2022/04/07 11:29:32;;;;;;;1.60;0.52;;;20.70;66.30;;;;;;5107239;27;45578;-78
2022/04/07 11:32:07;;;;;;;1.65;0.52;;;20.80;66.30;;;;;;5116718;27;47901;-78
2022/04/07 11:35:11;;;;;;;3.75;0.65;;;20.90;65.30;;;;;;5101936;27;45348;-78
2022/04/07 11:37:40;;;;;;;2.75;0.88;;;20.80;65.70;;;;;;5105853;27;45210;-78
2022/04/07 11:40:08;;;;;;;1.70;0.70;;;20.80;64.60;;;;;;5102099;27;45630;-78
2022/04/07 11:42:35;;;;;;;2.03;0.70;;;20.60;64.80;;;;;;5105127;27;45303;-78
2022/04/07 11:45:02;;;;;;;1.45;0.65;;;20.60;65.20;;;;;;5101274;27;45286;-78
2022/04/07 11:47:31;;;;;;;2.40;0.55;;;20.50;64.90;;;;;;5104483;27;45274;-78
2022/04/07 11:49:58;;;;;;;3.28;0.82;;;20.50;64.70;;;;;;5103732;27;45552;-78
2022/04/07 11:52:28;;;;;;;2.40;1.00;;;20.40;64.60;;;;;;5105142;27;48278;-79
2022/04/07 11:54:56;;;;;;;3.47;0.65;;;20.20;63.00;;;;;;5108198;27;45265;-79
2022/04/07 11:57:24;;;;;;;2.83;1.35;;;19.80;63.30;;;;;;5106434;27;45156;-78
2022/04/07 11:59:56;;;;;;;1.50;0.65;;;19.50;63.70;;;;;;5106671;27;45467;-78
2022/04/07 12:02:23;;;;;;;2.95;0.65;;;19.40;65.60;;;;;;5101539;27;47559;-79
2022/04/07 12:04:58;;;;;;;1.55;0.50;;;19.20;63.50;;;;;;5104558;27;45474;-78
2022/04/07 12:07:26;;;;;;;1.77;0.60;;;19.10;63.80;;;;;;5101918;27;45252;-78
2022/04/07 12:09:56;;;;;;;2.30;0.63;;;19.10;63.10;;;;;;5105720;27;45235;-78
2022/04/07 12:12:23;;;;;;;2.42;0.52;;;19.00;62.60;;;;;;5104855;27;47235;-78
2022/04/07 12:14:52;;;;;;;3.58;0.70;;;19.00;62.10;;;;;;5103466;27;45124;-78
2022/04/07 12:17:19;;;;;;;1.98;0.70;;;18.90;61.90;;;;;;5106847;27;45431;-78
2022/04/07 12:19:46;;;;;;;2.92;0.60;;;18.80;61.90;;;;;;5101589;27;45415;-78
2022/04/07 12:22:14;;;;;;;4.03;0.63;;;18.80;61.80;;;;;;5108416;27;45282;-78
2022/04/07 12:24:58;;;;;;;2.67;0.47;;;18.70;62.10;;;;;;5107020;27;45211;-78
2022/04/07 12:27:30;;;;;;;2.22;0.60;;;18.70;61.90;;;;;;5104889;27;46328;-78
2022/04/07 12:29:57;;;;;;;2.25;0.50;;;18.60;61.70;;;;;;5105997;27;45279;-78
2022/04/07 12:32:24;;;;;;;3.00;0.55;;;18.60;61.50;;;;;;5103301;27;47400;-78
2022/04/07 12:34:55;;;;;;;2.55;0.60;;;18.60;61.50;;;;;;5107047;27;45222;-78
2022/04/07 12:37:33;;;;;;;3.08;0.60;;;18.50;61.70;;;;;;5104804;27;45743;-78
2022/04/07 12:40:02;;;;;;;2.08;0.80;;;18.50;61.50;;;;;;5111017;27;45512;-78
2022/04/07 12:42:28;;;;;;;1.38;0.70;;;18.50;61.90;;;;;;5109071;27;47067;-79
2022/04/07 12:45:06;;;;;;;1.17;0.30;;;18.50;61.50;;;;;;5108200;27;45266;-78
2022/04/07 12:47:33;;;;;;;2.27;0.60;;;18.50;61.80;;;;;;5109850;27;45239;-77
2022/04/07 12:50:01;;;;;;;20.17;1.85;;;18.50;61.10;;;;;;5102168;27;45309;-78
2022/04/07 12:52:37;;;;;;;5.75;0.80;;;18.60;64.70;;;;;;5109452;27;46181;-78